Time;durP1;ratioP1;P1;durP2;ratioP2;P2;SDS_P1;SDS_P2;PMS_P1;PMS_P2;Temp;Humidity;BMP_temperature;BMP_pressure;BME280_temperature;BME280_humidity;BME280_pressure;Samples;Min_cycle;Max_cycle;Signal;HPM_P1;HPM_P2
2021/10/06 00:01:35;;;;;;;;;;;;;;;12.00;56.68;101160.47;5091457;28;19916;-22
2021/10/06 00:04:00;;;;;;;;;;;;;;;12.01;56.65;101162.16;5090830;28;19985;-22
2021/10/06 00:06:25;;;;;;;;;;;;;;;12.16;56.46;101161.16;5091602;28;19922;-23
2021/10/06 00:08:51;;;;;;;;;;;;;;;11.98;56.54;101156.38;5091111;28;20010;-22
2021/10/06 00:11:16;;;;;;;;;;;;;;;11.59;57.79;101157.84;5091430;28;19998;-22
2021/10/06 00:13:42;;;;;;;;;;;;;;;11.55;58.40;101152.06;5091459;28;19939;-22
2021/10/06 00:16:10;;;;;;;;;;;;;;;11.57;58.07;101157.22;5091104;28;20019;-22
2021/10/06 00:18:35;;;;;;;;;;;;;;;11.92;57.33;101152.66;5091083;28;19915;-22
2021/10/06 00:21:00;;;;;;;;;;;;;;;12.17;56.60;101149.41;5091277;28;20376;-22
2021/10/06 00:23:28;;;;;;;;;;;;;;;11.96;56.82;101153.06;5091067;28;20402;-22
2021/10/06 00:25:53;;;;;;;;;;;;;;;12.20;56.10;101154.38;5091290;28;20011;-22
2021/10/06 00:28:18;;;;;;;;;;;;;;;12.31;55.70;101144.91;5091019;28;20015;-22
2021/10/06 00:30:44;;;;;;;;;;;;;;;12.16;56.08;101147.78;5090739;28;19966;-22
2021/10/06 00:33:09;;;;;;;;;;;;;;;12.15;56.15;101135.41;5091076;28;19919;-22
2021/10/06 00:35:34;;;;;;;;;;;;;;;11.99;56.99;101137.47;5090904;28;19976;-22
2021/10/06 00:37:59;;;;;;;;;;;;;;;12.11;56.27;101120.81;5090931;28;19916;-23
2021/10/06 00:40:25;;;;;;;;;;;;;;;11.56;57.46;101121.63;5091254;28;19915;-22
2021/10/06 00:42:50;;;;;;;;;;;;;;;11.46;58.05;101118.50;5090740;28;20557;-22
2021/10/06 00:45:15;;;;;;;;;;;;;;;11.44;57.80;101117.88;5090730;28;19920;-22
2021/10/06 00:47:41;;;;;;;;;;;;;;;11.86;56.55;101116.00;5091165;28;20006;-22
2021/10/06 00:50:06;;;;;;;;;;;;;;;11.78;56.64;101116.19;5090618;28;19912;-22
2021/10/06 00:52:31;;;;;;;;;;;;;;;10.70;60.61;101116.63;5090874;28;20001;-22
2021/10/06 00:54:57;;;;;;;;;;;;;;;10.06;62.31;101112.16;5102846;28;19916;-23
2021/10/06 00:57:22;;;;;;;;;;;;;;;10.32;61.25;101114.28;5110912;28;20268;-22
2021/10/06 00:59:47;;;;;;;;;;;;;;;10.48;60.26;101115.81;5110783;28;19955;-22
2021/10/06 01:02:13;;;;;;;;;;;;;;;10.92;58.39;101124.59;5110804;28;19918;-22
2021/10/06 01:04:38;;;;;;;;;;;;;;;10.56;58.82;101118.38;5110695;28;20306;-22
2021/10/06 01:07:03;;;;;;;;;;;;;;;10.65;58.13;101119.88;5110673;28;19915;-22
2021/10/06 01:09:29;;;;;;;;;;;;;;;11.01;56.50;101113.56;5110582;28;20279;-22
2021/10/06 01:11:54;;;;;;;;;;;;;;;10.35;57.79;101118.41;5111342;28;20394;-22
2021/10/06 01:14:20;;;;;;;;;;;;;;;10.30;59.43;101115.47;5110326;28;20034;-22
2021/10/06 01:16:45;;;;;;;;;;;;;;;10.62;59.09;101117.63;5092097;28;19919;-23
2021/10/06 01:19:21;;;;;;;;;;;;;;;10.29;60.79;101124.47;5092254;28;19912;-22
2021/10/06 01:21:47;;;;;;;;;;;;;;;10.78;59.91;101118.34;5110325;28;19911;-22
2021/10/06 01:24:12;;;;;;;;;;;;;;;10.54;61.70;101108.91;5110370;28;19912;-22
2021/10/06 01:26:37;;;;;;;;;;;;;;;10.63;62.46;101105.91;5110208;28;20041;-22
2021/10/06 01:29:03;;;;;;;;;;;;;;;10.84;62.16;101106.88;5110531;28;20288;-22
2021/10/06 01:31:28;;;;;;;;;;;;;;;10.28;63.95;101099.66;5110170;28;19996;-22
2021/10/06 01:33:53;;;;;;;;;;;;;;;10.86;62.49;101094.16;5110263;28;19915;-22
2021/10/06 01:36:19;;;;;;;;;;;;;;;10.68;63.47;101083.97;5109990;28;20390;-22
2021/10/06 01:38:44;;;;;;;;;;;;;;;10.10;66.02;101088.63;5110039;28;20043;-22
2021/10/06 01:41:09;;;;;;;;;;;;;;;9.89;65.37;101076.09;5110138;28;19961;-22
2021/10/06 01:43:34;;;;;;;;;;;;;;;9.83;65.51;101083.03;5109896;28;19938;-22
2021/10/06 01:46:00;;;;;;;;;;;;;;;9.79;64.59;101071.09;5110112;28;19968;-22
2021/10/06 01:48:25;;;;;;;;;;;;;;;9.84;64.66;101064.16;5109983;28;19920;-23
2021/10/06 01:50:50;;;;;;;;;;;;;;;9.74;65.03;101078.81;5109732;28;19915;-22
2021/10/06 01:53:16;;;;;;;;;;;;;;;9.87;64.44;101081.63;5109883;28;19916;-22
2021/10/06 01:55:41;;;;;;;;;;;;;;;10.09;64.67;101081.63;5109743;28;20326;-22
2021/10/06 01:58:13;;;;;;;;;;;;;;;10.12;64.99;101075.91;5110323;28;19915;-22
2021/10/06 02:00:40;;;;;;;;;;;;;;;9.80;65.33;101078.88;5109821;28;20398;-22
2021/10/06 02:03:05;;;;;;;;;;;;;;;9.67;66.05;101080.59;5109630;28;20372;-22
2021/10/06 02:05:33;;;;;;;;;;;;;;;9.83;65.50;101072.34;5109758;28;19974;-22
2021/10/06 02:07:59;;;;;;;;;;;;;;;10.30;63.06;101078.97;5109714;28;20004;-22
2021/10/06 02:10:24;;;;;;;;;;;;;;;10.26;63.13;101083.84;5109894;28;20363;-22
2021/10/06 02:12:49;;;;;;;;;;;;;;;9.80;64.57;101088.72;5109485;28;20010;-22
2021/10/06 02:15:15;;;;;;;;;;;;;;;9.88;64.56;101085.94;5110048;28;19943;-22
2021/10/06 02:17:40;;;;;;;;;;;;;;;10.32;62.84;101084.94;5109593;28;19947;-22
2021/10/06 02:20:05;;;;;;;;;;;;;;;10.22;63.68;101092.41;5109741;28;19941;-22
2021/10/06 02:22:31;;;;;;;;;;;;;;;10.24;62.77;101091.19;5109493;28;19919;-22
2021/10/06 02:24:56;;;;;;;;;;;;;;;10.26;63.07;101088.34;5109785;28;19915;-22
2021/10/06 02:27:21;;;;;;;;;;;;;;;10.48;62.08;101083.00;5112106;28;19912;-22
2021/10/06 02:29:47;;;;;;;;;;;;;;;10.74;61.95;101082.38;5113876;28;19919;-23
2021/10/06 02:32:12;;;;;;;;;;;;;;;10.25;63.23;101081.34;5113729;28;19939;-22
2021/10/06 02:34:37;;;;;;;;;;;;;;;10.22;63.56;101087.09;5113267;28;19968;-21
2021/10/06 02:37:03;;;;;;;;;;;;;;;9.82;65.42;101084.00;5113717;28;19912;-21
2021/10/06 02:39:28;;;;;;;;;;;;;;;9.43;65.56;101090.53;5113652;28;20314;-22
2021/10/06 02:41:53;;;;;;;;;;;;;;;9.37;65.17;101088.63;5113338;28;20344;-22
2021/10/06 02:44:19;;;;;;;;;;;;;;;9.24;65.89;101090.09;5113693;28;20371;-22
2021/10/06 02:46:44;;;;;;;;;;;;;;;9.24;65.65;101091.94;5112193;28;19911;-22
2021/10/06 02:49:09;;;;;;;;;;;;;;;9.70;64.00;101083.69;5113421;28;19969;-22
2021/10/06 02:51:34;;;;;;;;;;;;;;;10.26;62.57;101083.03;5113398;28;19918;-22
2021/10/06 02:54:00;;;;;;;;;;;;;;;9.83;63.57;101088.34;5113232;28;19916;-22
2021/10/06 02:56:25;;;;;;;;;;;;;;;9.69;63.49;101087.38;5113314;28;20040;-22
2021/10/06 02:58:50;;;;;;;;;;;;;;;9.77;64.70;101083.78;5112978;28;20011;-22
2021/10/06 03:01:16;;;;;;;;;;;;;;;10.50;62.59;101086.31;5113561;28;20450;-21
2021/10/06 03:03:41;;;;;;;;;;;;;;;10.22;63.75;101095.09;5113040;28;19912;-22
2021/10/06 03:06:06;;;;;;;;;;;;;;;10.37;63.86;101095.03;5112974;28;20298;-21
2021/10/06 03:08:32;;;;;;;;;;;;;;;10.26;64.61;101091.03;5113013;28;19960;-21
2021/10/06 03:10:57;;;;;;;;;;;;;;;10.45;64.33;101094.91;5112595;28;19911;-21
2021/10/06 03:13:22;;;;;;;;;;;;;;;10.35;64.43;101092.56;5113068;28;19916;-21
2021/10/06 03:15:48;;;;;;;;;;;;;;;10.24;65.62;101099.19;5113491;28;19915;-21
2021/10/06 03:18:13;;;;;;;;;;;;;;;10.67;63.96;101098.34;5112769;28;19958;-22
2021/10/06 03:20:38;;;;;;;;;;;;;;;10.22;65.08;101082.56;5112556;28;19911;-21
2021/10/06 03:23:04;;;;;;;;;;;;;;;9.86;64.55;101082.63;5112747;28;19916;-21
2021/10/06 03:25:29;;;;;;;;;;;;;;;9.76;64.73;101076.78;5094386;28;20371;-22
2021/10/06 03:27:55;;;;;;;;;;;;;;;9.56;65.33;101088.06;5112509;28;19942;-22
2021/10/06 03:30:20;;;;;;;;;;;;;;;9.70;64.80;101088.19;5112584;28;19922;-22
2021/10/06 03:32:45;;;;;;;;;;;;;;;9.95;64.50;101088.66;5112183;28;19946;-21
2021/10/06 03:35:10;;;;;;;;;;;;;;;9.98;65.11;101091.75;5112356;28;19920;-22
2021/10/06 03:37:37;;;;;;;;;;;;;;;9.95;65.97;101094.81;5111513;28;20010;-21
2021/10/06 03:40:03;;;;;;;;;;;;;;;9.87;66.88;101089.63;5110986;28;19970;-21
2021/10/06 03:42:28;;;;;;;;;;;;;;;10.39;65.26;101083.16;5112339;28;19915;-22
2021/10/06 03:44:53;;;;;;;;;;;;;;;10.66;63.81;101088.69;5112140;28;19916;-22
2021/10/06 03:47:18;;;;;;;;;;;;;;;10.21;65.44;101080.09;5112090;28;19916;-21
2021/10/06 03:49:44;;;;;;;;;;;;;;;9.82;64.93;101081.34;5112282;28;19912;-21
2021/10/06 03:52:09;;;;;;;;;;;;;;;9.41;64.49;101073.94;5112277;28;20368;-22
2021/10/06 03:54:34;;;;;;;;;;;;;;;9.30;64.96;101077.09;5111708;28;19916;-21
2021/10/06 03:56:59;;;;;;;;;;;;;;;9.13;65.65;101076.44;5111988;28;20371;-21
2021/10/06 03:59:25;;;;;;;;;;;;;;;9.77;63.49;101075.78;5112493;28;19919;-21
2021/10/06 04:01:50;;;;;;;;;;;;;;;10.12;62.57;101086.59;5111966;28;19912;-21
2021/10/06 04:04:15;;;;;;;;;;;;;;;10.30;61.76;101070.97;5111958;28;19919;-21
2021/10/06 04:06:41;;;;;;;;;;;;;;;9.89;63.63;101079.59;5111785;28;19920;-21
2021/10/06 04:09:06;;;;;;;;;;;;;;;9.71;64.81;101074.69;5111891;28;19922;-22
2021/10/06 04:11:31;;;;;;;;;;;;;;;9.48;65.55;101077.50;5111789;28;19911;-22
2021/10/06 04:13:57;;;;;;;;;;;;;;;9.30;66.50;101077.09;5111812;28;19912;-22
2021/10/06 04:16:22;;;;;;;;;;;;;;;9.18;67.00;101074.88;5111842;28;19923;-22
2021/10/06 04:18:47;;;;;;;;;;;;;;;9.81;64.93;101080.53;5111608;28;20032;-21
2021/10/06 04:21:13;;;;;;;;;;;;;;;9.85;64.02;101075.66;5111603;28;19923;-21
2021/10/06 04:23:38;;;;;;;;;;;;;;;10.21;63.26;101080.91;5111711;28;20472;-22
2021/10/06 04:26:03;;;;;;;;;;;;;;;10.44;62.84;101086.06;5111432;28;19912;-22
2021/10/06 04:28:28;;;;;;;;;;;;;;;10.43;62.70;101079.06;5111647;28;20471;-22
2021/10/06 04:30:54;;;;;;;;;;;;;;;9.70;64.94;101077.53;5111189;28;20003;-21
2021/10/06 04:33:19;;;;;;;;;;;;;;;9.71;64.53;101089.84;5111444;28;19920;-21
2021/10/06 04:35:44;;;;;;;;;;;;;;;10.32;62.75;101087.63;5111338;28;19915;-22
2021/10/06 04:38:09;;;;;;;;;;;;;;;10.27;62.79;101082.00;5111335;28;19969;-21
2021/10/06 04:40:35;;;;;;;;;;;;;;;10.36;62.66;101088.03;5110977;28;19911;-21
2021/10/06 04:43:00;;;;;;;;;;;;;;;10.63;62.45;101099.75;5111242;28;19916;-22
2021/10/06 04:45:25;;;;;;;;;;;;;;;10.77;62.40;101096.16;5111173;28;20075;-22
2021/10/06 04:47:51;;;;;;;;;;;;;;;10.94;60.55;101086.00;5111738;28;20644;-22
2021/10/06 04:50:16;;;;;;;;;;;;;;;10.39;63.02;101085.00;5110699;28;20037;-22
2021/10/06 04:52:41;;;;;;;;;;;;;;;9.95;64.47;101086.84;5110881;28;19921;-21
2021/10/06 04:55:07;;;;;;;;;;;;;;;9.38;64.81;101088.44;5110880;28;20407;-22
2021/10/06 04:57:32;;;;;;;;;;;;;;;9.35;64.78;101086.13;5110997;28;19911;-22
2021/10/06 04:59:57;;;;;;;;;;;;;;;9.44;64.95;101094.88;5110967;28;19921;-22
2021/10/06 05:02:23;;;;;;;;;;;;;;;9.58;65.38;101086.03;5110700;28;19915;-22
2021/10/06 05:04:48;;;;;;;;;;;;;;;9.43;66.17;101091.34;5110893;28;19969;-21
2021/10/06 05:07:13;;;;;;;;;;;;;;;9.59;65.87;101090.31;5110817;28;19912;-22
2021/10/06 05:09:38;;;;;;;;;;;;;;;10.27;64.24;101100.66;5110756;28;19970;-21
2021/10/06 05:12:04;;;;;;;;;;;;;;;10.19;64.03;101093.59;5110541;28;20416;-23
2021/10/06 05:14:30;;;;;;;;;;;;;;;10.03;64.87;101089.38;5110685;28;19911;-22
2021/10/06 05:16:55;;;;;;;;;;;;;;;9.93;65.61;101094.19;5110429;28;20026;-22
2021/10/06 05:19:20;;;;;;;;;;;;;;;10.19;65.51;101095.44;5110664;28;19977;-22
2021/10/06 05:21:46;;;;;;;;;;;;;;;10.26;65.49;101096.34;5110515;28;19915;-22
2021/10/06 05:24:11;;;;;;;;;;;;;;;10.23;65.62;101086.06;5110399;28;19968;-22
2021/10/06 05:26:36;;;;;;;;;;;;;;;10.04;66.64;101091.00;5110101;28;20382;-21
2021/10/06 05:29:01;;;;;;;;;;;;;;;10.10;66.52;101091.28;5110421;28;19984;-22
2021/10/06 05:31:27;;;;;;;;;;;;;;;10.53;65.20;101078.75;5110293;28;19911;-21
2021/10/06 05:33:52;;;;;;;;;;;;;;;10.61;64.74;101081.28;5110132;28;19923;-22
2021/10/06 05:36:17;;;;;;;;;;;;;;;10.33;65.84;101081.25;5110305;28;20413;-22
2021/10/06 05:38:43;;;;;;;;;;;;;;;10.35;65.65;101083.72;5110005;28;19938;-22
2021/10/06 05:41:08;;;;;;;;;;;;;;;10.28;66.13;101075.66;5109966;28;20002;-22
2021/10/06 05:43:33;;;;;;;;;;;;;;;10.43;65.60;101079.06;5110178;28;19918;-21
2021/10/06 05:45:59;;;;;;;;;;;;;;;10.88;63.56;101081.44;5110236;28;19915;-22
2021/10/06 05:48:24;;;;;;;;;;;;;;;10.76;65.15;101078.50;5110133;28;20342;-22
2021/10/06 05:50:49;;;;;;;;;;;;;;;10.76;64.75;101077.69;5109859;28;20033;-21
2021/10/06 05:53:15;;;;;;;;;;;;;;;10.93;64.17;101075.50;5110034;28;20371;-21
2021/10/06 05:55:40;;;;;;;;;;;;;;;11.45;62.73;101090.97;5109753;28;20379;-22
2021/10/06 05:58:05;;;;;;;;;;;;;;;11.93;60.72;101084.81;5110007;28;19977;-22
2021/10/06 06:00:31;;;;;;;;;;;;;;;12.16;60.01;101089.78;5109381;28;19911;-21
2021/10/06 06:02:56;;;;;;;;;;;;;;;12.49;58.20;101082.78;5109270;28;19916;-21
2021/10/06 06:05:21;;;;;;;;;;;;;;;13.05;56.24;101087.63;5109776;28;19955;-21
2021/10/06 06:07:46;;;;;;;;;;;;;;;13.22;55.65;101080.78;5109926;28;20302;-21
2021/10/06 06:10:12;;;;;;;;;;;;;;;13.45;55.12;101074.94;5109806;28;19911;-22
2021/10/06 06:12:38;;;;;;;;;;;;;;;13.49;54.79;101072.69;5110001;28;19916;-22
2021/10/06 06:15:04;;;;;;;;;;;;;;;13.34;55.57;101072.09;5091499;28;20593;-22
2021/10/06 06:17:29;;;;;;;;;;;;;;;12.84;57.71;101078.00;5109613;28;20385;-21
2021/10/06 06:19:54;;;;;;;;;;;;;;;12.15;58.87;101077.41;5109878;28;19923;-21
2021/10/06 06:22:19;;;;;;;;;;;;;;;12.35;58.86;101082.78;5109857;28;19915;-22
2021/10/06 06:24:45;;;;;;;;;;;;;;;12.22;60.25;101083.59;5109336;28;19984;-22
2021/10/06 06:27:10;;;;;;;;;;;;;;;12.70;58.92;101085.22;5109515;28;20006;-21
2021/10/06 06:29:36;;;;;;;;;;;;;;;12.79;58.08;101092.03;5109646;28;19912;-22
2021/10/06 06:32:01;;;;;;;;;;;;;;;13.01;58.18;101091.75;5109566;28;19965;-21
2021/10/06 06:34:26;;;;;;;;;;;;;;;13.40;56.87;101088.19;5109397;28;20379;-22
2021/10/06 06:36:52;;;;;;;;;;;;;;;13.82;55.36;101085.06;5109277;28;20713;-22
2021/10/06 06:39:17;;;;;;;;;;;;;;;14.12;54.46;101087.13;5109421;28;20368;-22
2021/10/06 06:41:42;;;;;;;;;;;;;;;14.46;53.57;101086.69;5109431;28;19911;-22
2021/10/06 06:44:07;;;;;;;;;;;;;;;14.26;53.74;101094.91;5109531;28;19916;-22
2021/10/06 06:46:33;;;;;;;;;;;;;;;14.39;53.79;101096.66;5109597;28;20326;-21
2021/10/06 06:48:58;;;;;;;;;;;;;;;14.10;55.19;101089.22;5109346;28;19973;-21
2021/10/06 06:51:23;;;;;;;;;;;;;;;14.48;54.29;101097.19;5109641;28;20010;-21
2021/10/06 06:53:49;;;;;;;;;;;;;;;14.39;54.03;101095.84;5109058;28;20367;-22
2021/10/06 06:56:15;;;;;;;;;;;;;;;14.49;53.58;101103.41;5109448;28;19954;-22
2021/10/06 06:58:40;;;;;;;;;;;;;;;14.56;53.71;101106.88;5109196;28;19941;-21
2021/10/06 07:01:05;;;;;;;;;;;;;;;14.65;53.14;101097.50;5109369;28;19915;-22
2021/10/06 07:03:32;;;;;;;;;;;;;;;14.73;54.05;101093.69;5109206;28;19920;-22
2021/10/06 07:05:57;;;;;;;;;;;;;;;14.75;52.67;101103.19;5109342;28;20260;-21
2021/10/06 07:08:22;;;;;;;;;;;;;;;14.73;52.47;101099.06;5109239;28;20401;-22
2021/10/06 07:10:48;;;;;;;;;;;;;;;15.00;53.26;101092.41;5108852;28;19937;-22
2021/10/06 07:13:13;;;;;;;;;;;;;;;14.86;53.83;101093.59;5111482;28;19915;-22
2021/10/06 07:15:38;;;;;;;;;;;;;;;14.67;53.71;101084.69;5094635;28;19923;-21
2021/10/06 07:18:03;;;;;;;;;;;;;;;15.03;55.21;101094.63;5112764;28;19911;-22
2021/10/06 07:20:29;;;;;;;;;;;;;;;15.83;51.46;101090.16;5112812;28;20371;-22
2021/10/06 07:22:55;;;;;;;;;;;;;;;15.67;51.55;101084.34;5093685;28;20445;-22
2021/10/06 07:25:20;;;;;;;;;;;;;;;16.05;51.12;101085.09;5109499;28;19996;-22
2021/10/06 07:27:46;;;;;;;;;;;;;;;15.86;50.16;101081.66;5112155;28;20043;-22
2021/10/06 07:30:11;;;;;;;;;;;;;;;15.85;50.06;101069.22;5112182;28;20002;-22
2021/10/06 07:32:37;;;;;;;;;;;;;;;15.91;50.35;101071.00;5112325;28;19924;-22
2021/10/06 07:35:02;;;;;;;;;;;;;;;16.28;48.86;101068.16;5112550;28;19955;-22
2021/10/06 07:37:27;;;;;;;;;;;;;;;16.17;49.60;101067.09;5077405;28;20356;-22
2021/10/06 07:39:53;;;;;;;;;;;;;;;16.40;48.68;101066.28;5094222;28;20387;-22
2021/10/06 07:42:18;;;;;;;;;;;;;;;16.57;48.73;101055.66;5094154;28;19912;-22
2021/10/06 07:44:44;;;;;;;;;;;;;;;16.91;48.81;101071.25;5110910;28;19918;-22
2021/10/06 07:47:09;;;;;;;;;;;;;;;17.21;47.95;101069.19;5112376;28;19919;-22
2021/10/06 07:49:35;;;;;;;;;;;;;;;16.84;47.84;101064.09;5112341;28;19972;-22
2021/10/06 07:52:00;;;;;;;;;;;;;;;16.50;48.69;101067.59;5112209;28;19946;-22
2021/10/06 07:54:26;;;;;;;;;;;;;;;16.85;47.67;101056.84;5112180;28;20375;-22
2021/10/06 07:56:52;;;;;;;;;;;;;;;17.03;46.84;101062.06;5112202;28;19981;-22
2021/10/06 07:59:17;;;;;;;;;;;;;;;17.25;46.01;101056.88;5112362;28;20823;-22
2021/10/06 08:01:43;;;;;;;;;;;;;;;17.42;46.49;101056.13;5112312;28;19912;-22
2021/10/06 08:04:08;;;;;;;;;;;;;;;16.97;47.24;101056.81;5111984;28;19916;-22
2021/10/06 08:06:34;;;;;;;;;;;;;;;17.36;47.68;101057.09;5112176;28;19911;-22
2021/10/06 08:08:59;;;;;;;;;;;;;;;17.67;46.11;101056.63;5111874;28;20002;-22
2021/10/06 08:11:25;;;;;;;;;;;;;;;17.73;44.51;101056.69;5111832;28;19934;-22
2021/10/06 08:13:50;;;;;;;;;;;;;;;17.90;45.04;101057.59;5111849;28;20394;-22
2021/10/06 08:16:15;;;;;;;;;;;;;;;17.78;45.09;101054.91;5111782;28;19959;-22
2021/10/06 08:18:41;;;;;;;;;;;;;;;17.93;44.99;101040.06;5111592;28;19923;-22
2021/10/06 08:21:06;;;;;;;;;;;;;;;18.23;43.14;101039.78;5111709;28;19995;-22
2021/10/06 08:23:31;;;;;;;;;;;;;;;17.66;44.42;101036.09;5111073;28;20306;-22
2021/10/06 08:25:57;;;;;;;;;;;;;;;18.04;43.88;101040.00;5111276;28;19915;-23
2021/10/06 08:28:22;;;;;;;;;;;;;;;18.32;42.99;101038.28;5093811;28;20625;-22
2021/10/06 08:30:47;;;;;;;;;;;;;;;18.19;43.63;101036.75;5111538;28;19918;-22
2021/10/06 08:33:13;;;;;;;;;;;;;;;18.01;43.36;101045.88;5111241;28;19911;-22
2021/10/06 08:35:38;;;;;;;;;;;;;;;18.03;43.26;101041.06;5111774;28;19955;-22
2021/10/06 08:38:04;;;;;;;;;;;;;;;18.11;42.81;101039.03;5111453;28;19912;-22
2021/10/06 08:40:29;;;;;;;;;;;;;;;18.11;42.71;101039.03;5111234;28;19916;-22
2021/10/06 08:42:55;;;;;;;;;;;;;;;18.42;41.77;101038.44;5110296;28;20413;-23
2021/10/06 08:45:20;;;;;;;;;;;;;;;18.55;41.12;101029.19;5111110;28;19919;-22
2021/10/06 08:47:45;;;;;;;;;;;;;;;18.95;40.54;101027.31;5111460;28;19964;-22
2021/10/06 08:50:12;;;;;;;;;;;;;;;19.39;40.27;101035.38;5111151;28;20048;-22
2021/10/06 08:52:37;;;;;;;;;;;;;;;19.49;39.38;101040.88;5110824;28;20002;-22
2021/10/06 08:55:03;;;;;;;;;;;;;;;18.98;39.47;101037.59;5097964;28;19999;-22
2021/10/06 08:57:28;;;;;;;;;;;;;;;19.07;40.84;101034.22;5090547;28;19916;-22
2021/10/06 08:59:54;;;;;;;;;;;;;;;18.83;40.49;101030.94;5090557;28;19919;-22
2021/10/06 09:02:19;;;;;;;;;;;;;;;19.05;40.12;101035.53;5090471;28;19912;-22
2021/10/06 09:04:45;;;;;;;;;;;;;;;18.86;40.56;101029.63;5090439;28;20008;-22
2021/10/06 09:07:10;;;;;;;;;;;;;;;19.42;38.95;101034.88;5072800;28;19912;-22
2021/10/06 09:09:36;;;;;;;;;;;;;;;19.45;39.47;101037.91;5090344;28;19973;-22
2021/10/06 09:12:03;;;;;;;;;;;;;;;19.66;40.36;101035.41;5072302;28;19927;-22
2021/10/06 09:14:29;;;;;;;;;;;;;;;19.42;39.94;101032.16;5072182;28;19916;-22
2021/10/06 09:17:11;;;;;;;;;;;;;;;19.58;38.96;101031.25;5089952;28;20003;-22
2021/10/06 09:19:36;;;;;;;;;;;;;;;19.84;38.54;101026.13;5090262;28;19915;-22
2021/10/06 09:22:01;;;;;;;;;;;;;;;20.16;36.81;101026.09;5089903;28;20315;-23
2021/10/06 09:24:46;;;;;;;;;;;;;;;19.52;39.19;101034.97;5090120;28;19916;-22
2021/10/06 09:27:12;;;;;;;;;;;;;;;19.42;38.24;101024.06;5089981;28;19919;-22
2021/10/06 09:29:53;;;;;;;;;;;;;;;19.43;39.02;101020.25;5090195;28;19912;-22
2021/10/06 09:32:27;;;;;;;;;;;;;;;19.78;38.38;101021.75;5089664;28;19977;-22
2021/10/06 09:35:02;;;;;;;;;;;;;;;19.81;39.34;101021.22;5089518;28;19920;-22
2021/10/06 09:37:27;;;;;;;;;;;;;;;19.73;38.25;101018.97;5089769;28;20010;-22
2021/10/06 09:39:53;;;;;;;;;;;;;;;19.67;37.05;101020.78;5089868;28;20368;-22
2021/10/06 09:42:18;;;;;;;;;;;;;;;19.54;38.18;101021.22;5089676;28;19912;-22
2021/10/06 09:44:51;;;;;;;;;;;;;;;19.71;37.89;101010.31;5089472;28;20348;-22
2021/10/06 09:47:16;;;;;;;;;;;;;;;20.22;37.09;101013.41;5089860;28;19912;-22
2021/10/06 09:49:41;;;;;;;;;;;;;;;20.27;36.04;101008.06;5089700;28;20003;-22
2021/10/06 09:52:13;;;;;;;;;;;;;;;20.73;36.76;101004.81;5089639;28;20360;-22
2021/10/06 09:54:39;;;;;;;;;;;;;;;21.00;35.15;101000.06;5089161;28;19915;-22
2021/10/06 09:57:04;;;;;;;;;;;;;;;20.75;35.42;101000.75;5090058;28;20303;-22
2021/10/06 09:59:29;;;;;;;;;;;;;;;21.24;33.97;100994.97;5089526;28;20387;-22
2021/10/06 10:01:59;;;;;;;;;;;;;;;21.09;33.65;101005.78;5071514;28;19920;-22
2021/10/06 10:04:25;;;;;;;;;;;;;;;20.51;35.08;101000.31;5089450;28;19916;-22
2021/10/06 10:06:51;;;;;;;;;;;;;;;20.09;35.59;101000.34;5089151;28;20397;-22
2021/10/06 10:09:16;;;;;;;;;;;;;;;20.23;36.28;100998.81;5071405;28;19912;-22
2021/10/06 10:11:43;;;;;;;;;;;;;;;20.65;36.09;100992.56;5089491;28;19912;-22
2021/10/06 10:14:08;;;;;;;;;;;;;;;20.51;35.09;100991.38;5089341;28;19912;-22
2021/10/06 10:16:33;;;;;;;;;;;;;;;20.87;35.46;100987.78;5089241;28;19947;-22
2021/10/06 10:19:08;;;;;;;;;;;;;;;21.02;33.86;100989.78;5089500;28;19919;-23
2021/10/06 10:21:34;;;;;;;;;;;;;;;21.31;34.36;100985.75;5089406;28;19999;-22
2021/10/06 10:24:07;;;;;;;;;;;;;;;21.32;33.36;100980.06;5089323;28;20011;-22
2021/10/06 10:26:35;;;;;;;;;;;;;;;21.16;34.45;100981.91;5089309;28;19919;-23
2021/10/06 10:29:30;;;;;;;;;;;;;;;20.52;34.86;100974.06;5071388;28;19923;-22
2021/10/06 10:32:32;;;;;;;;;;;;;;;20.93;34.69;100982.41;5090377;28;20380;-22
2021/10/06 10:35:11;;;;;;;;;;;;;;;20.28;36.59;100964.44;5087301;28;19930;-22
2021/10/06 10:40:42;;;;;;;;;;;;;;;20.32;36.80;100966.63;5089200;28;19915;-22
2021/10/06 10:43:27;;;;;;;;;;;;;;;20.29;36.23;100959.84;5088643;28;19920;-22
2021/10/06 10:49:01;;;;;;;;;;;;;;;19.99;36.09;100958.56;5092553;28;20011;-22
2021/10/06 10:51:41;;;;;;;;;;;;;;;20.80;35.82;100953.88;5093116;28;20039;-22
2021/10/06 10:54:10;;;;;;;;;;;;;;;21.51;35.90;100945.09;5092765;28;19962;-22
2021/10/06 10:56:40;;;;;;;;;;;;;;;21.26;35.70;100943.97;5074922;28;19911;-22
2021/10/06 10:59:06;;;;;;;;;;;;;;;21.28;35.20;100930.94;5093081;28;20411;-22
2021/10/06 11:01:42;;;;;;;;;;;;;;;21.12;35.58;100932.00;5092792;28;20705;-23
2021/10/06 11:04:07;;;;;;;;;;;;;;;20.84;35.39;100925.16;5092581;28;19920;-22
2021/10/06 11:06:34;;;;;;;;;;;;;;;20.49;34.43;100923.91;5092715;28;19915;-22
2021/10/06 11:08:59;;;;;;;;;;;;;;;20.73;33.93;100927.03;5092884;28;20685;-22
2021/10/06 11:11:25;;;;;;;;;;;;;;;21.19;34.31;100924.44;5074422;28;19919;-22
2021/10/06 11:13:52;;;;;;;;;;;;;;;21.97;31.84;100919.84;5092523;28;20310;-22
2021/10/06 11:16:17;;;;;;;;;;;;;;;21.45;31.19;100919.06;5092408;28;19915;-22
2021/10/06 11:18:49;;;;;;;;;;;;;;;21.00;32.92;100893.47;5092484;28;19919;-22
2021/10/06 11:21:29;;;;;;;;;;;;;;;21.57;32.58;100884.31;5092836;28;20190;-22
2021/10/06 11:23:57;;;;;;;;;;;;;;;21.35;32.30;100891.88;5092109;28;19919;-22
2021/10/06 11:26:26;;;;;;;;;;;;;;;21.06;33.86;100886.97;5092357;28;20398;-22
2021/10/06 11:28:51;;;;;;;;;;;;;;;21.75;31.99;100879.44;5091951;28;19919;-22
2021/10/06 11:31:35;;;;;;;;;;;;;;;21.07;33.63;100880.47;5092064;28;20311;-22
2021/10/06 11:34:02;;;;;;;;;;;;;;;21.45;32.74;100875.63;5092197;28;19920;-22
2021/10/06 11:36:28;;;;;;;;;;;;;;;22.25;32.03;100878.53;5091929;28;19955;-22
2021/10/06 11:38:56;;;;;;;;;;;;;;;21.83;31.88;100884.31;5092058;28;20399;-22
2021/10/06 11:41:22;;;;;;;;;;;;;;;21.57;32.77;100876.19;5092018;28;20352;-22
2021/10/06 11:43:48;;;;;;;;;;;;;;;20.71;33.46;100876.88;5092043;28;19919;-22
2021/10/06 11:46:14;;;;;;;;;;;;;;;20.99;33.20;100875.59;5092007;28;19918;-22
2021/10/06 11:48:40;;;;;;;;;;;;;;;21.61;32.66;100877.25;5091719;28;19912;-21
2021/10/06 11:51:05;;;;;;;;;;;;;;;22.28;31.57;100871.72;5091846;28;19923;-22
2021/10/06 11:53:37;;;;;;;;;;;;;;;22.43;31.10;100871.66;5091842;28;20561;-22
2021/10/06 11:56:03;;;;;;;;;;;;;;;22.05;31.59;100863.06;5091877;28;19920;-22
2021/10/06 11:58:35;;;;;;;;;;;;;;;21.96;32.13;100862.00;5089886;28;19973;-22
2021/10/06 12:01:04;;;;;;;;;;;;;;;22.19;31.13;100859.75;5091412;28;19912;-22
2021/10/06 12:03:34;;;;;;;;;;;;;;;22.59;30.67;100858.78;5091604;28;20069;-22
2021/10/06 12:06:00;;;;;;;;;;;;;;;22.57;30.88;100862.88;5091625;28;19920;-22
2021/10/06 12:08:25;;;;;;;;;;;;;;;22.66;30.25;100858.50;5091490;28;19939;-22
2021/10/06 12:10:50;;;;;;;;;;;;;;;22.61;30.00;100851.16;5090077;28;19919;-22
2021/10/06 12:13:16;;;;;;;;;;;;;;;;;;5091584;28;19916;-23
2021/10/06 12:15:41;;;;;;;;;;;;;;;21.96;31.44;100840.25;5091428;28;19947;-23
2021/10/06 12:18:09;;;;;;;;;;;;;;;22.21;31.72;100846.69;5090090;28;20453;-22
2021/10/06 12:20:34;;;;;;;;;;;;;;;21.70;31.46;100839.53;5091154;28;20272;-22
2021/10/06 12:23:00;;;;;;;;;;;;;;;22.02;31.25;100841.06;5089900;28;19919;-22
2021/10/06 12:25:26;;;;;;;;;;;;;;;22.53;30.91;100856.38;5091204;28;20420;-22
2021/10/06 12:28:14;;;;;;;;;;;;;;;23.16;29.47;100853.03;5091365;28;20456;-22
2021/10/06 12:30:39;;;;;;;;;;;;;;;23.85;28.84;100848.34;5090904;28;20433;-22
2021/10/06 12:33:14;;;;;;;;;;;;;;;23.61;29.31;100846.34;5091104;28;19915;-22
2021/10/06 12:35:46;;;;;;;;;;;;;;;23.26;29.46;100842.06;5090994;28;20338;-22
2021/10/06 12:38:12;;;;;;;;;;;;;;;23.34;29.64;100843.38;5091108;28;20467;-22
2021/10/06 12:40:40;;;;;;;;;;;;;;;23.11;29.41;100843.00;5090838;28;19966;-22